sensor_id;sensor_type;location;lat;lon;timestamp;pressure;altitude;pressure_sealevel;temperature;humidity
65276;BME280;51875;49.994;14.052;2022-07-18T00:00:15;99320.94;;;10.48;100.00
65276;BME280;51875;49.994;14.052;2022-07-18T00:01:51;99325.31;;;10.47;100.00
65276;BME280;51875;49.994;14.052;2022-07-18T00:03:06;99323.56;;;10.49;100.00
65276;BME280;51875;49.994;14.052;2022-07-18T00:04:22;99326.13;;;10.52;100.00
65276;BME280;51875;49.994;14.052;2022-07-18T00:05:38;99330.44;;;10.56;100.00
65276;BME280;51875;49.994;14.052;2022-07-18T00:06:54;99328.75;;;10.52;100.00
65276;BME280;51875;49.994;14.052;2022-07-18T00:08:10;99322.53;;;10.59;100.00
65276;BME280;51875;49.994;14.052;2022-07-18T00:09:25;99326.56;;;10.82;100.00
65276;BME280;51875;49.994;14.052;2022-07-18T00:10:41;99323.91;;;10.87;100.00
65276;BME280;51875;49.994;14.052;2022-07-18T00:11:57;99330.94;;;10.82;100.00
65276;BME280;51875;49.994;14.052;2022-07-18T00:13:12;99326.69;;;10.76;100.00
65276;BME280;51875;49.994;14.052;2022-07-18T00:14:28;99328.44;;;10.74;100.00
65276;BME280;51875;49.994;14.052;2022-07-18T00:15:43;99325.91;;;10.68;100.00
65276;BME280;51875;49.994;14.052;2022-07-18T00:16:59;99332.09;;;10.60;100.00
65276;BME280;51875;49.994;14.052;2022-07-18T00:18:15;99332.09;;;10.60;100.00
65276;BME280;51875;49.994;14.052;2022-07-18T00:19:30;99343.50;;;10.58;100.00
65276;BME280;51875;49.994;14.052;2022-07-18T00:20:46;99335.69;;;10.55;100.00
65276;BME280;51875;49.994;14.052;2022-07-18T00:22:02;99334.03;;;10.46;100.00
65276;BME280;51875;49.994;14.052;2022-07-18T00:23:18;99328.84;;;10.43;100.00
65276;BME280;51875;49.994;14.052;2022-07-18T00:24:34;99328.88;;;10.40;100.00
65276;BME280;51875;49.994;14.052;2022-07-18T00:25:49;99332.44;;;10.32;100.00
65276;BME280;51875;49.994;14.052;2022-07-18T00:27:05;99334.16;;;10.34;100.00
65276;BME280;51875;49.994;14.052;2022-07-18T00:28:22;99331.59;;;10.32;100.00
65276;BME280;51875;49.994;14.052;2022-07-18T00:29:38;99334.25;;;10.27;100.00
65276;BME280;51875;49.994;14.052;2022-07-18T00:30:54;99331.66;;;10.26;100.00
65276;BME280;51875;49.994;14.052;2022-07-18T00:32:10;99329.91;;;10.25;100.00
65276;BME280;51875;49.994;14.052;2022-07-18T00:33:26;99329.13;;;10.21;100.00
65276;BME280;51875;49.994;14.052;2022-07-18T00:34:41;99332.63;;;10.18;100.00
65276;BME280;51875;49.994;14.052;2022-07-18T00:35:57;99325.63;;;10.19;100.00
65276;BME280;51875;49.994;14.052;2022-07-18T00:37:13;99336.09;;;10.19;100.00
65276;BME280;51875;49.994;14.052;2022-07-18T00:38:28;99337.75;;;10.26;100.00
65276;BME280;51875;49.994;14.052;2022-07-18T00:39:44;99335.09;;;10.29;100.00
65276;BME280;51875;49.994;14.052;2022-07-18T00:41:00;99336.88;;;10.29;100.00
65276;BME280;51875;49.994;14.052;2022-07-18T00:42:16;99337.72;;;10.29;100.00
65276;BME280;51875;49.994;14.052;2022-07-18T00:43:31;99336.00;;;10.28;100.00
65276;BME280;51875;49.994;14.052;2022-07-18T00:44:52;99335.09;;;10.29;100.00
65276;BME280;51875;49.994;14.052;2022-07-18T00:46:08;99331.59;;;10.30;100.00
65276;BME280;51875;49.994;14.052;2022-07-18T00:47:24;99334.25;;;10.27;100.00
65276;BME280;51875;49.994;14.052;2022-07-18T00:48:41;99330.78;;;10.27;100.00
65276;BME280;51875;49.994;14.052;2022-07-18T00:49:57;99328.13;;;10.30;100.00
65276;BME280;51875;49.994;14.052;2022-07-18T00:51:13;99328.97;;;10.30;100.00
65276;BME280;51875;49.994;14.052;2022-07-18T00:52:29;99330.75;;;10.30;100.00
65276;BME280;51875;49.994;14.052;2022-07-18T00:53:45;99331.63;;;10.29;100.00
65276;BME280;51875;49.994;14.052;2022-07-18T00:55:05;99325.56;;;10.27;100.00
65276;BME280;51875;49.994;14.052;2022-07-18T00:56:21;99329.06;;;10.24;100.00
65276;BME280;51875;49.994;14.052;2022-07-18T00:57:39;99321.28;;;10.20;100.00
65276;BME280;51875;49.994;14.052;2022-07-18T00:58:55;99318.75;;;10.13;100.00
65276;BME280;51875;49.994;14.052;2022-07-18T01:00:13;99315.28;;;10.08;100.00
65276;BME280;51875;49.994;14.052;2022-07-18T01:01:47;99324.91;;;10.06;100.00
65276;BME280;51875;49.994;14.052;2022-07-18T01:03:03;99324.97;;;10.03;100.00
65276;BME280;51875;49.994;14.052;2022-07-18T01:04:21;99325.88;;;9.97;100.00
65276;BME280;51875;49.994;14.052;2022-07-18T01:05:37;99328.50;;;9.97;100.00
65276;BME280;51875;49.994;14.052;2022-07-18T01:06:52;99324.16;;;9.96;100.00
65276;BME280;51875;49.994;14.052;2022-07-18T01:08:08;99318.03;;;9.99;100.00
65276;BME280;51875;49.994;14.052;2022-07-18T01:09:24;99319.72;;;10.01;100.00
65276;BME280;51875;49.994;14.052;2022-07-18T01:10:39;99318.88;;;9.99;100.00
65276;BME280;51875;49.994;14.052;2022-07-18T01:11:55;99319.78;;;10.00;100.00
65276;BME280;51875;49.994;14.052;2022-07-18T01:13:11;99312.81;;;9.97;100.00
65276;BME280;51875;49.994;14.052;2022-07-18T01:14:26;99318.97;;;9.93;100.00
65276;BME280;51875;49.994;14.052;2022-07-18T01:15:42;99311.09;;;9.96;100.00
65276;BME280;51875;49.994;14.052;2022-07-18T01:16:58;99315.44;;;9.97;100.00
65276;BME280;51875;49.994;14.052;2022-07-18T01:18:14;99318.88;;;9.99;100.00
65276;BME280;51875;49.994;14.052;2022-07-18T01:19:29;99319.72;;;10.03;100.00
65276;BME280;51875;49.994;14.052;2022-07-18T01:20:45;99313.63;;;10.02;100.00
65276;BME280;51875;49.994;14.052;2022-07-18T01:22:00;99310.16;;;10.00;100.00
65276;BME280;51875;49.994;14.052;2022-07-18T01:23:16;99315.38;;;10.00;100.00
65276;BME280;51875;49.994;14.052;2022-07-18T01:24:31;99314.53;;;10.00;100.00
65276;BME280;51875;49.994;14.052;2022-07-18T01:25:47;99314.53;;;10.00;100.00
65276;BME280;51875;49.994;14.052;2022-07-18T01:27:03;99316.31;;;9.96;100.00
65276;BME280;51875;49.994;14.052;2022-07-18T01:28:19;99316.31;;;9.95;100.00
65276;BME280;51875;49.994;14.052;2022-07-18T01:29:34;99315.47;;;9.93;100.00
65276;BME280;51875;49.994;14.052;2022-07-18T01:30:50;99320.72;;;9.93;100.00
65276;BME280;51875;49.994;14.052;2022-07-18T01:32:07;99323.28;;;9.96;100.00
65276;BME280;51875;49.994;14.052;2022-07-18T01:33:23;99316.22;;;10.04;100.00
65276;BME280;51875;49.994;14.052;2022-07-18T01:34:38;99316.94;;;10.17;100.00
65276;BME280;51875;49.994;14.052;2022-07-18T01:35:54;99317.91;;;10.10;100.00
65276;BME280;51875;49.994;14.052;2022-07-18T01:37:10;99324.91;;;10.06;100.00
65276;BME280;51875;49.994;14.052;2022-07-18T01:38:28;99326.69;;;10.04;100.00
65276;BME280;51875;49.994;14.052;2022-07-18T01:39:45;99328.47;;;10.00;100.00
65276;BME280;51875;49.994;14.052;2022-07-18T01:41:01;99321.53;;;9.96;100.00
65276;BME280;51875;49.994;14.052;2022-07-18T01:42:17;99328.50;;;9.96;100.00
65276;BME280;51875;49.994;14.052;2022-07-18T01:43:33;99320.72;;;9.93;100.00
65276;BME280;51875;49.994;14.052;2022-07-18T01:44:49;99318.13;;;9.89;100.00
65276;BME280;51875;49.994;14.052;2022-07-18T01:46:05;99322.53;;;9.87;100.00
65276;BME280;51875;49.994;14.052;2022-07-18T01:47:20;99316.50;;;9.81;100.00
65276;BME280;51875;49.994;14.052;2022-07-18T01:48:37;99314.75;;;9.78;100.00
65276;BME280;51875;49.994;14.052;2022-07-18T01:49:54;99318.28;;;9.74;100.00
65276;BME280;51875;49.994;14.052;2022-07-18T01:51:09;99315.69;;;9.72;100.00
65276;BME280;51875;49.994;14.052;2022-07-18T01:52:25;99322.69;;;9.70;100.00
65276;BME280;51875;49.994;14.052;2022-07-18T01:53:41;99314.00;;;9.67;100.00
65276;BME280;51875;49.994;14.052;2022-07-18T01:54:57;99325.34;;;9.66;100.00
65276;BME280;51875;49.994;14.052;2022-07-18T01:56:13;99317.53;;;9.64;100.00
65276;BME280;51875;49.994;14.052;2022-07-18T01:57:28;99315.81;;;9.61;100.00
65276;BME280;51875;49.994;14.052;2022-07-18T01:58:44;99315.81;;;9.60;100.00
65276;BME280;51875;49.994;14.052;2022-07-18T02:00:00;99321.13;;;9.54;100.00
65276;BME280;51875;49.994;14.052;2022-07-18T02:01:15;99317.66;;;9.49;100.00
65276;BME280;51875;49.994;14.052;2022-07-18T02:02:31;99322.06;;;9.43;100.00
65276;BME280;51875;49.994;14.052;2022-07-18T02:03:47;99321.25;;;9.38;100.00
65276;BME280;51875;49.994;14.052;2022-07-18T02:05:04;99330.00;;;9.32;100.00
65276;BME280;51875;49.994;14.052;2022-07-18T02:06:20;99324.81;;;9.26;100.00
65276;BME280;51875;49.994;14.052;2022-07-18T02:07:37;99322.28;;;9.18;100.00
65276;BME280;51875;49.994;14.052;2022-07-18T02:08:53;99324.91;;;9.17;100.00
65276;BME280;51875;49.994;14.052;2022-07-18T02:10:11;99321.41;;;9.15;100.00
65276;BME280;51875;49.994;14.052;2022-07-18T02:11:27;99325.78;;;9.17;100.00
65276;BME280;51875;49.994;14.052;2022-07-18T02:12:42;99324.88;;;9.18;100.00
65276;BME280;51875;49.994;14.052;2022-07-18T02:13:58;99329.19;;;9.24;100.00
65276;BME280;51875;49.994;14.052;2022-07-18T02:15:15;99329.19;;;9.24;100.00
65276;BME280;51875;49.994;14.052;2022-07-18T02:16:31;99328.34;;;9.24;100.00
65276;BME280;51875;49.994;14.052;2022-07-18T02:17:47;99333.56;;;9.21;100.00
65276;BME280;51875;49.994;14.052;2022-07-18T02:19:02;99322.28;;;9.18;100.00
65276;BME280;51875;49.994;14.052;2022-07-18T02:20:18;99329.22;;;9.21;100.00
65276;BME280;51875;49.994;14.052;2022-07-18T02:21:33;99335.38;;;9.17;100.00
65276;BME280;51875;49.994;14.052;2022-07-18T02:22:49;99329.31;;;9.10;100.00
65276;BME280;51875;49.994;14.052;2022-07-18T02:24:05;99334.56;;;9.09;100.00
65276;BME280;51875;49.994;14.052;2022-07-18T02:25:20;99333.69;;;9.08;100.00
65276;BME280;51875;49.994;14.052;2022-07-18T02:26:36;99328.47;;;9.08;100.00
65276;BME280;51875;49.994;14.052;2022-07-18T02:27:51;99331.06;;;9.10;100.00
65276;BME280;51875;49.994;14.052;2022-07-18T02:29:07;99333.66;;;9.10;100.00
65276;BME280;51875;49.994;14.052;2022-07-18T02:30:22;99333.66;;;9.11;100.00
65276;BME280;51875;49.994;14.052;2022-07-18T02:31:38;99331.06;;;9.10;100.00
65276;BME280;51875;49.994;14.052;2022-07-18T02:32:53;99330.19;;;9.06;100.00
65276;BME280;51875;49.994;14.052;2022-07-18T02:34:10;99337.16;;;9.07;100.00
65276;BME280;51875;49.994;14.052;2022-07-18T02:35:26;99333.69;;;9.05;100.00
65276;BME280;51875;49.994;14.052;2022-07-18T02:36:42;99331.16;;;8.99;100.00
65276;BME280;51875;49.994;14.052;2022-07-18T02:37:57;99334.63;;;8.96;100.00
65276;BME280;51875;49.994;14.052;2022-07-18T02:39:13;99334.66;;;8.95;100.00
65276;BME280;51875;49.994;14.052;2022-07-18T02:40:29;99332.06;;;8.95;100.00
65276;BME280;51875;49.994;14.052;2022-07-18T02:41:45;99322.47;;;8.92;100.00
65276;BME280;51875;49.994;14.052;2022-07-18T02:43:00;99332.06;;;8.93;100.00
65276;BME280;51875;49.994;14.052;2022-07-18T02:44:16;99328.63;;;8.88;100.00
65276;BME280;51875;49.994;14.052;2022-07-18T02:45:32;99325.16;;;8.84;100.00
65276;BME280;51875;49.994;14.052;2022-07-18T02:46:48;99322.59;;;8.75;100.00
65276;BME280;51875;49.994;14.052;2022-07-18T02:48:03;99333.06;;;8.72;100.00
65276;BME280;51875;49.994;14.052;2022-07-18T02:49:19;99319.13;;;8.73;100.00
65276;BME280;51875;49.994;14.052;2022-07-18T02:50:44;99328.66;;;8.77;100.00
65276;BME280;51875;49.994;14.052;2022-07-18T02:52:03;99322.56;;;8.80;100.00
65276;BME280;51875;49.994;14.052;2022-07-18T02:53:19;99326.91;;;8.81;100.00
65276;BME280;51875;49.994;14.052;2022-07-18T02:54:38;99321.69;;;8.79;100.00
65276;BME280;51875;49.994;14.052;2022-07-18T02:55:54;99314.75;;;8.76;100.00
65276;BME280;51875;49.994;14.052;2022-07-18T02:57:09;99316.50;;;8.76;100.00
65276;BME280;51875;49.994;14.052;2022-07-18T02:58:25;99326.06;;;8.74;100.00
65276;BME280;51875;49.994;14.052;2022-07-18T02:59:41;99319.16;;;8.70;100.00
65276;BME280;51875;49.994;14.052;2022-07-18T03:00:56;99320.03;;;8.62;100.00
65276;BME280;51875;49.994;14.052;2022-07-18T03:02:12;99320.06;;;8.64;100.00
65276;BME280;51875;49.994;14.052;2022-07-18T03:03:27;99313.06;;;8.65;100.00
65276;BME280;51875;49.994;14.052;2022-07-18T03:04:43;99318.31;;;8.61;100.00
65276;BME280;51875;49.994;14.052;2022-07-18T03:05:59;99322.69;;;8.58;100.00
65276;BME280;51875;49.994;14.052;2022-07-18T03:07:14;99315.78;;;8.51;100.00
65276;BME280;51875;49.994;14.052;2022-07-18T03:08:30;99318.38;;;8.46;100.00
65276;BME280;51875;49.994;14.052;2022-07-18T03:09:46;99315.81;;;8.40;100.00
65276;BME280;51875;49.994;14.052;2022-07-18T03:11:01;99321.00;;;8.41;100.00
65276;BME280;51875;49.994;14.052;2022-07-18T03:12:17;99322.75;;;8.39;100.00
65276;BME280;51875;49.994;14.052;2022-07-18T03:13:32;99319.31;;;8.32;100.00
65276;BME280;51875;49.994;14.052;2022-07-18T03:14:49;99318.50;;;8.23;100.00
65276;BME280;51875;49.994;14.052;2022-07-18T03:16:04;99318.34;;;8.49;100.00
65276;BME280;51875;49.994;14.052;2022-07-18T03:17:20;99319.19;;;8.62;100.00
65276;BME280;51875;49.994;14.052;2022-07-18T03:18:35;99315.69;;;8.66;100.00
65276;BME280;51875;49.994;14.052;2022-07-18T03:19:51;99318.34;;;8.57;100.00
65276;BME280;51875;49.994;14.052;2022-07-18T03:21:07;99317.50;;;8.56;100.00
65276;BME280;51875;49.994;14.052;2022-07-18T03:22:22;99316.63;;;8.53;100.00
65276;BME280;51875;49.994;14.052;2022-07-18T03:23:38;99317.47;;;8.55;100.00
65276;BME280;51875;49.994;14.052;2022-07-18T03:24:53;99320.97;;;8.55;100.00
65276;BME280;51875;49.994;14.052;2022-07-18T03:26:09;99320.97;;;8.55;100.00
65276;BME280;51875;49.994;14.052;2022-07-18T03:27:24;99316.59;;;8.57;100.00
65276;BME280;51875;49.994;14.052;2022-07-18T03:28:40;99317.50;;;8.56;100.00
65276;BME280;51875;49.994;14.052;2022-07-18T03:29:56;99313.16;;;8.55;100.00
65276;BME280;51875;49.994;14.052;2022-07-18T03:31:11;99318.34;;;8.57;100.00
65276;BME280;51875;49.994;14.052;2022-07-18T03:32:27;99317.47;;;8.58;100.00
65276;BME280;51875;49.994;14.052;2022-07-18T03:33:42;99321.81;;;8.60;100.00
65276;BME280;51875;49.994;14.052;2022-07-18T03:34:59;99311.38;;;8.62;100.00
65276;BME280;51875;49.994;14.052;2022-07-18T03:36:14;99313.09;;;8.63;100.00
65276;BME280;51875;49.994;14.052;2022-07-18T03:37:30;99313.94;;;8.65;100.00
65276;BME280;51875;49.994;14.052;2022-07-18T03:38:45;99313.94;;;8.64;100.00
65276;BME280;51875;49.994;14.052;2022-07-18T03:40:02;99315.69;;;8.65;100.00
65276;BME280;51875;49.994;14.052;2022-07-18T03:41:18;99314.84;;;8.64;100.00
65276;BME280;51875;49.994;14.052;2022-07-18T03:42:37;99311.34;;;8.65;100.00
65276;BME280;51875;49.994;14.052;2022-07-18T03:43:52;99320.06;;;8.64;100.00
65276;BME280;51875;49.994;14.052;2022-07-18T03:45:08;99323.41;;;8.82;100.00
65276;BME280;51875;49.994;14.052;2022-07-18T03:46:24;99323.16;;;9.17;100.00
65276;BME280;51875;49.994;14.052;2022-07-18T03:47:40;99329.97;;;9.34;100.00
65276;BME280;51875;49.994;14.052;2022-07-18T03:48:55;99334.25;;;9.44;100.00
65276;BME280;51875;49.994;14.052;2022-07-18T03:50:11;99327.38;;;9.34;100.00
65276;BME280;51875;49.994;14.052;2022-07-18T03:51:27;99326.41;;;9.44;100.00
65276;BME280;51875;49.994;14.052;2022-07-18T03:52:42;99329.06;;;9.43;100.00
65276;BME280;51875;49.994;14.052;2022-07-18T03:53:58;99330.78;;;9.44;100.00
65276;BME280;51875;49.994;14.052;2022-07-18T03:55:15;99326.50;;;9.35;100.00
65276;BME280;51875;49.994;14.052;2022-07-18T03:56:31;99321.25;;;9.35;100.00
65276;BME280;51875;49.994;14.052;2022-07-18T03:57:46;99330.75;;;9.45;100.00
65276;BME280;51875;49.994;14.052;2022-07-18T03:59:02;99329.81;;;9.56;100.00
65276;BME280;51875;49.994;14.052;2022-07-18T04:00:18;99327.28;;;9.43;100.00
65276;BME280;51875;49.994;14.052;2022-07-18T04:01:34;99325.69;;;9.27;100.00
65276;BME280;51875;49.994;14.052;2022-07-18T04:02:49;99324.94;;;9.12;100.00
65276;BME280;51875;49.994;14.052;2022-07-18T04:04:05;99331.09;;;9.07;100.00
65276;BME280;51875;49.994;14.052;2022-07-18T04:05:20;99328.56;;;8.96;100.00
65276;BME280;51875;49.994;14.052;2022-07-18T04:06:36;99333.78;;;8.93;100.00
65276;BME280;51875;49.994;14.052;2022-07-18T04:07:51;99328.59;;;8.89;100.00
65276;BME280;51875;49.994;14.052;2022-07-18T04:09:07;99331.22;;;8.88;100.00
65276;BME280;51875;49.994;14.052;2022-07-18T04:10:23;99326.03;;;8.82;100.00
65276;BME280;51875;49.994;14.052;2022-07-18T04:11:38;99328.63;;;8.83;100.00
65276;BME280;51875;49.994;14.052;2022-07-18T04:12:54;99326.00;;;8.85;100.00
65276;BME280;51875;49.994;14.052;2022-07-18T04:14:10;99319.00;;;8.87;100.00
65276;BME280;51875;49.994;14.052;2022-07-18T04:15:27;99319.91;;;8.87;100.00
65276;BME280;51875;49.994;14.052;2022-07-18T04:16:42;99325.97;;;8.91;100.00
65276;BME280;51875;49.994;14.052;2022-07-18T04:17:59;99325.94;;;8.93;100.00
65276;BME280;51875;49.994;14.052;2022-07-18T04:19:14;99323.31;;;8.97;100.00
65276;BME280;51875;49.994;14.052;2022-07-18T04:20:30;99325.00;;;9.03;100.00
65276;BME280;51875;49.994;14.052;2022-07-18T04:21:46;99320.66;;;9.03;100.00
65276;BME280;51875;49.994;14.052;2022-07-18T04:23:03;99319.81;;;9.00;100.00
65276;BME280;51875;49.994;14.052;2022-07-18T04:24:19;99314.56;;;9.03;100.00
65276;BME280;51875;49.994;14.052;2022-07-18T04:25:38;99310.22;;;9.00;100.00
65276;BME280;51875;49.994;14.052;2022-07-18T04:26:54;99314.59;;;8.98;100.00
65276;BME280;51875;49.994;14.052;2022-07-18T04:28:11;99313.72;;;9.02;100.00
65276;BME280;51875;49.994;14.052;2022-07-18T04:29:27;99313.69;;;9.04;100.00
65276;BME280;51875;49.994;14.052;2022-07-18T04:30:43;99307.56;;;9.05;100.00
65276;BME280;51875;49.994;14.052;2022-07-18T04:31:59;99317.97;;;9.14;100.00
65276;BME280;51875;49.994;14.052;2022-07-18T04:33:14;99320.50;;;9.21;100.00
65276;BME280;51875;49.994;14.052;2022-07-18T04:34:30;99317.88;;;9.27;100.00
65276;BME280;51875;49.994;14.052;2022-07-18T04:35:46;99316.09;;;9.29;100.00
65276;BME280;51875;49.994;14.052;2022-07-18T04:37:02;99315.22;;;9.31;100.00
65276;BME280;51875;49.994;14.052;2022-07-18T04:38:17;99317.72;;;9.41;100.00
65276;BME280;51875;49.994;14.052;2022-07-18T04:39:33;99307.09;;;9.61;100.00
65276;BME280;51875;49.994;14.052;2022-07-18T04:40:49;99310.53;;;9.66;100.00
65276;BME280;51875;49.994;14.052;2022-07-18T04:42:04;99305.22;;;9.72;100.00
65276;BME280;51875;49.994;14.052;2022-07-18T04:43:20;99301.69;;;9.77;100.00
65276;BME280;51875;49.994;14.052;2022-07-18T04:44:35;99299.06;;;9.80;100.00
65276;BME280;51875;49.994;14.052;2022-07-18T04:45:51;99305.19;;;9.75;100.00
65276;BME280;51875;49.994;14.052;2022-07-18T04:47:06;99305.19;;;9.77;100.00
65276;BME280;51875;49.994;14.052;2022-07-18T04:48:22;99299.88;;;9.86;100.00
65276;BME280;51875;49.994;14.052;2022-07-18T04:49:37;99297.22;;;9.89;100.00
65276;BME280;51875;49.994;14.052;2022-07-18T04:50:53;99304.16;;;9.89;100.00
65276;BME280;51875;49.994;14.052;2022-07-18T04:52:09;99294.50;;;9.99;100.00
65276;BME280;51875;49.994;14.052;2022-07-18T04:53:24;99300.53;;;10.02;100.00
65276;BME280;51875;49.994;14.052;2022-07-18T04:54:40;99298.72;;;10.09;100.00
65276;BME280;51875;49.994;14.052;2022-07-18T04:55:56;99303.84;;;10.18;100.00
65276;BME280;51875;49.994;14.052;2022-07-18T04:57:11;99297.75;;;10.16;100.00
65276;BME280;51875;49.994;14.052;2022-07-18T04:58:29;99298.66;;;10.14;100.00
65276;BME280;51875;49.994;14.052;2022-07-18T04:59:46;99302.16;;;10.11;100.00
65276;BME280;51875;49.994;14.052;2022-07-18T05:01:02;99305.63;;;10.15;100.00
65276;BME280;51875;49.994;14.052;2022-07-18T05:02:17;99303.84;;;10.17;100.00
65276;BME280;51875;49.994;14.052;2022-07-18T05:03:33;99296.00;;;10.18;100.00
65276;BME280;51875;49.994;14.052;2022-07-18T05:04:48;99297.63;;;10.27;100.00
65276;BME280;51875;49.994;14.052;2022-07-18T05:06:04;99301.13;;;10.28;100.00
65276;BME280;51875;49.994;14.052;2022-07-18T05:07:20;99305.41;;;10.30;100.00
65276;BME280;51875;49.994;14.052;2022-07-18T05:08:35;99295.78;;;10.34;100.00
65276;BME280;51875;49.994;14.052;2022-07-18T05:09:51;99304.28;;;10.55;100.00
65276;BME280;51875;49.994;14.052;2022-07-18T05:11:07;99305.91;;;10.64;100.00
65276;BME280;51875;49.994;14.052;2022-07-18T05:12:23;99302.28;;;10.72;100.00
65276;BME280;51875;49.994;14.052;2022-07-18T05:13:38;99305.59;;;10.84;100.00
65276;BME280;51875;49.994;14.052;2022-07-18T05:14:55;99306.22;;;11.00;100.00
65276;BME280;51875;49.994;14.052;2022-07-18T05:16:11;99309.56;;;11.10;100.00
65276;BME280;51875;49.994;14.052;2022-07-18T05:17:27;99311.31;;;11.09;100.00
65276;BME280;51875;49.994;14.052;2022-07-18T05:18:43;99301.50;;;11.22;100.00
65276;BME280;51875;49.994;14.052;2022-07-18T05:19:59;99304.88;;;11.29;100.00
65276;BME280;51875;49.994;14.052;2022-07-18T05:21:14;99308.31;;;11.33;100.00
65276;BME280;51875;49.994;14.052;2022-07-18T05:22:32;99307.28;;;11.41;100.00
65276;BME280;51875;49.994;14.052;2022-07-18T05:23:47;99312.47;;;11.44;100.00
65276;BME280;51875;49.994;14.052;2022-07-18T05:25:05;99308.19;;;11.40;100.00
65276;BME280;51875;49.994;14.052;2022-07-18T05:26:21;99309.00;;;11.44;100.00
65276;BME280;51875;49.994;14.052;2022-07-18T05:27:37;99307.91;;;11.56;100.00
65276;BME280;51875;49.994;14.052;2022-07-18T05:28:53;99303.41;;;11.64;100.00
65276;BME280;51875;49.994;14.052;2022-07-18T05:30:11;99302.53;;;11.64;100.00
65276;BME280;51875;49.994;14.052;2022-07-18T05:31:28;99298.28;;;11.56;100.00
65276;BME280;51875;49.994;14.052;2022-07-18T05:32:44;99292.75;;;11.72;100.00
65276;BME280;51875;49.994;14.052;2022-07-18T05:33:59;99289.25;;;11.73;100.00
65276;BME280;51875;49.994;14.052;2022-07-18T05:35:15;99292.75;;;11.73;100.00
65276;BME280;51875;49.994;14.052;2022-07-18T05:36:31;99289.25;;;11.73;100.00
65276;BME280;51875;49.994;14.052;2022-07-18T05:37:47;99290.16;;;11.70;100.00
65276;BME280;51875;49.994;14.052;2022-07-18T05:39:02;99284.88;;;11.73;100.00
65276;BME280;51875;49.994;14.052;2022-07-18T05:40:18;99291.06;;;11.69;100.00
65276;BME280;51875;49.994;14.052;2022-07-18T05:41:34;99286.44;;;11.82;100.00
65276;BME280;51875;49.994;14.052;2022-07-18T05:42:49;99279.16;;;11.97;100.00
65276;BME280;51875;49.994;14.052;2022-07-18T05:44:05;99283.41;;;12.06;100.00
65276;BME280;51875;49.994;14.052;2022-07-18T05:45:22;99279.72;;;12.13;100.00
65276;BME280;51875;49.994;14.052;2022-07-18T05:46:38;99277.88;;;12.18;100.00
65276;BME280;51875;49.994;14.052;2022-07-18T05:47:54;99278.78;;;12.17;100.00
65276;BME280;51875;49.994;14.052;2022-07-18T05:49:10;99285.69;;;12.23;100.00
65276;BME280;51875;49.994;14.052;2022-07-18T05:50:25;99279.41;;;12.28;100.00
65276;BME280;51875;49.994;14.052;2022-07-18T05:51:41;99278.31;;;12.39;100.00
65276;BME280;51875;49.994;14.052;2022-07-18T05:52:57;99282.72;;;12.38;100.00
65276;BME280;51875;49.994;14.052;2022-07-18T05:54:13;99286.00;;;12.48;100.00
65276;BME280;51875;49.994;14.052;2022-07-18T05:55:33;99288.56;;;12.51;100.00
65276;BME280;51875;49.994;14.052;2022-07-18T05:56:51;99287.56;;;12.55;100.00
65276;BME280;51875;49.994;14.052;2022-07-18T05:58:06;99281.41;;;12.58;100.00
65276;BME280;51875;49.994;14.052;2022-07-18T05:59:22;99281.91;;;12.74;100.00
65276;BME280;51875;49.994;14.052;2022-07-18T06:00:37;99286.28;;;12.75;100.00
65276;BME280;51875;49.994;14.052;2022-07-18T06:01:53;99284.38;;;12.80;100.00
65276;BME280;51875;49.994;14.052;2022-07-18T06:03:09;99282.38;;;12.92;100.00
65276;BME280;51875;49.994;14.052;2022-07-18T06:04:26;99277.00;;;12.96;100.00
65276;BME280;51875;49.994;14.052;2022-07-18T06:05:41;99278.56;;;13.04;100.00
65276;BME280;51875;49.994;14.052;2022-07-18T06:06:57;99279.34;;;13.09;100.00
65276;BME280;51875;49.994;14.052;2022-07-18T06:08:12;99283.59;;;13.13;100.00
65276;BME280;51875;49.994;14.052;2022-07-18T06:09:28;99287.69;;;13.25;100.00
65276;BME280;51875;49.994;14.052;2022-07-18T06:10:45;99282.09;;;13.39;100.00
65276;BME280;51875;49.994;14.052;2022-07-18T06:12:01;99285.50;;;13.42;100.00
65276;BME280;51875;49.994;14.052;2022-07-18T06:13:17;99278.25;;;13.52;100.00
65276;BME280;51875;49.994;14.052;2022-07-18T06:14:32;99277.25;;;13.58;100.00
65276;BME280;51875;49.994;14.052;2022-07-18T06:15:48;99276.28;;;13.61;100.00
65276;BME280;51875;49.994;14.052;2022-07-18T06:17:06;99279.59;;;13.67;100.00
65276;BME280;51875;49.994;14.052;2022-07-18T06:18:21;99281.19;;;13.73;100.00
65276;BME280;51875;49.994;14.052;2022-07-18T06:19:37;99266.09;;;13.80;100.00
65276;BME280;51875;49.994;14.052;2022-07-18T06:20:52;99277.38;;;13.85;100.00
65276;BME280;51875;49.994;14.052;2022-07-18T06:22:08;99277.22;;;13.90;100.00
65276;BME280;51875;49.994;14.052;2022-07-18T06:23:24;99277.03;;;13.97;100.00
65276;BME280;51875;49.994;14.052;2022-07-18T06:24:40;99279.50;;;14.04;100.00
65276;BME280;51875;49.994;14.052;2022-07-18T06:25:57;99282.84;;;14.09;100.00
65276;BME280;51875;49.994;14.052;2022-07-18T06:27:13;99283.63;;;14.12;100.00
65276;BME280;51875;49.994;14.052;2022-07-18T06:28:28;99282.38;;;14.24;100.00
65276;BME280;51875;49.994;14.052;2022-07-18T06:29:44;99285.78;;;14.30;100.00
65276;BME280;51875;49.994;14.052;2022-07-18T06:31:00;99288.13;;;14.39;100.00
65276;BME280;51875;49.994;14.052;2022-07-18T06:32:16;99284.41;;;14.46;100.00
65276;BME280;51875;49.994;14.052;2022-07-18T06:33:32;99289.41;;;14.55;100.00
65276;BME280;51875;49.994;14.052;2022-07-18T06:34:47;99289.06;;;14.66;100.00